createdAt,value
2023-03-29T00:02:04.895Z,97922.13
2023-03-29T00:04:31.757Z,97920.50
2023-03-29T00:07:04.242Z,97923.75
2023-03-29T00:09:33.562Z,97927.81
2023-03-29T00:12:01.467Z,97923.88
2023-03-29T00:14:30.946Z,97936.94
2023-03-29T00:16:59.268Z,97931.47
2023-03-29T00:19:26.485Z,97908.63
2023-03-29T00:21:53.224Z,97925.69
2023-03-29T00:24:21.540Z,97918.25
2023-03-29T00:26:49.285Z,97917.69
2023-03-29T00:29:16.160Z,97937.50
2023-03-29T00:31:46.212Z,97927.53
2023-03-29T00:34:12.940Z,97903.03
2023-03-29T00:36:40.419Z,97921.28
2023-03-29T00:39:08.505Z,97922.91
2023-03-29T00:41:36.576Z,97906.88
2023-03-29T00:44:05.158Z,97921.81
2023-03-29T00:46:35.219Z,97922.88
2023-03-29T00:49:07.766Z,97917.75
2023-03-29T00:51:39.814Z,97912.50
2023-03-29T00:54:10.654Z,97914.38
2023-03-29T00:56:40.614Z,97918.53
2023-03-29T00:59:13.906Z,97910.06
2023-03-29T01:01:50.634Z,97905.41
2023-03-29T01:04:18.801Z,97907.63
2023-03-29T01:06:55.926Z,97902.25
2023-03-29T01:09:27.258Z,97903.38
2023-03-29T01:11:57.613Z,97882.56
2023-03-29T01:14:38.926Z,97900.22
2023-03-29T01:17:06.875Z,97904.06
2023-03-29T01:19:44.520Z,97888.63
2023-03-29T01:22:39.482Z,97894.09
2023-03-29T01:25:57.320Z,97884.66
2023-03-29T01:28:34.496Z,97854.72
2023-03-29T01:31:08.643Z,97895.22
2023-03-29T01:33:44.976Z,97893.94
2023-03-29T01:36:11.954Z,97898.81
2023-03-29T01:38:51.418Z,97895.66
2023-03-29T01:41:18.198Z,97893.88
2023-03-29T01:44:13.249Z,97888.88
2023-03-29T01:46:48.194Z,97874.25
2023-03-29T01:49:24.429Z,97856.75
2023-03-29T01:51:51.254Z,97892.94
2023-03-29T01:54:24.027Z,97888.28
2023-03-29T01:56:52.378Z,97878.69
2023-03-29T01:59:23.925Z,97884.59
2023-03-29T02:01:54.917Z,97880.97
2023-03-29T02:04:30.044Z,97887.69
2023-03-29T02:07:00.924Z,97884.28
2023-03-29T02:09:29.795Z,97884.44
2023-03-29T02:12:00.667Z,97867.38
2023-03-29T02:14:27.940Z,97882.22
2023-03-29T02:16:54.646Z,97873.59
2023-03-29T02:19:24.287Z,97882.81
2023-03-29T02:22:01.646Z,97890.66
2023-03-29T02:24:32.585Z,97892.50
2023-03-29T02:27:01.362Z,97895.81
2023-03-29T02:29:28.142Z,97878.78
2023-03-29T02:32:13.550Z,97893.59
2023-03-29T02:35:17.848Z,97891.38
2023-03-29T02:37:49.925Z,97879.28
2023-03-29T02:40:18.176Z,97882.56
2023-03-29T02:42:45.910Z,97851.53
2023-03-29T02:45:15.873Z,97879.72
2023-03-29T02:47:46.669Z,97872.50
2023-03-29T02:50:13.595Z,97863.97
2023-03-29T02:52:47.287Z,97895.38
2023-03-29T02:55:17.351Z,97862.19
2023-03-29T02:57:44.093Z,97876.25
2023-03-29T03:00:12.395Z,97900.44
2023-03-29T03:02:39.201Z,97876.19
2023-03-29T03:05:06.603Z,97892.84
2023-03-29T03:07:36.169Z,97884.56
2023-03-29T03:10:05.232Z,97901.69
2023-03-29T03:12:32.010Z,97888.88
2023-03-29T03:14:59.114Z,97906.03
2023-03-29T03:17:26.017Z,97894.25
2023-03-29T03:19:53.357Z,97896.09
2023-03-29T03:22:20.188Z,97898.94
2023-03-29T03:24:46.992Z,97897.44
2023-03-29T03:27:13.863Z,97895.69
2023-03-29T03:29:41.691Z,97902.16
2023-03-29T03:32:08.503Z,97893.22
2023-03-29T03:34:35.740Z,97892.03
2023-03-29T03:37:02.512Z,97905.41
2023-03-29T03:39:29.529Z,97921.59
2023-03-29T03:41:56.556Z,97884.00
2023-03-29T03:44:23.310Z,97903.75
2023-03-29T03:46:49.980Z,97895.06
2023-03-29T03:49:16.862Z,97906.28
2023-03-29T03:51:45.647Z,97878.81
2023-03-29T03:54:12.516Z,97904.28
2023-03-29T03:56:39.285Z,97886.13
2023-03-29T03:59:07.334Z,97882.44
2023-03-29T04:01:35.632Z,97894.41
2023-03-29T04:04:03.268Z,97918.19
2023-03-29T04:06:30.764Z,97919.78
2023-03-29T04:08:58.100Z,97898.81
2023-03-29T04:11:24.967Z,97913.66
2023-03-29T04:13:51.816Z,97901.19
2023-03-29T04:16:18.516Z,97903.25
2023-03-29T04:18:45.558Z,97889.03
2023-03-29T04:21:12.291Z,97910.47
2023-03-29T04:23:39.012Z,97901.47
2023-03-29T04:26:06.829Z,97909.25
2023-03-29T04:28:33.506Z,97909.25
2023-03-29T04:31:00.405Z,97913.78
2023-03-29T04:33:29.127Z,97911.16
2023-03-29T04:35:55.758Z,97907.63
2023-03-29T04:38:23.518Z,97903.09
2023-03-29T04:40:50.866Z,97887.22
2023-03-29T04:43:17.677Z,97909.44
2023-03-29T04:45:44.893Z,97910.19
2023-03-29T04:48:11.797Z,97899.84
2023-03-29T04:50:38.555Z,97902.56
2023-03-29T04:53:06.120Z,97907.66
2023-03-29T04:55:32.962Z,97905.06
2023-03-29T04:57:59.741Z,97904.41
2023-03-29T05:00:29.455Z,97894.78
2023-03-29T05:02:58.317Z,97898.19
2023-03-29T05:05:25.326Z,97892.53
2023-03-29T05:07:52.114Z,97889.47
2023-03-29T05:10:19.233Z,97898.47
2023-03-29T05:12:46.969Z,97892.97
2023-03-29T05:15:15.020Z,97892.13
2023-03-29T05:17:42.491Z,97894.28
2023-03-29T05:20:13.301Z,97884.25
2023-03-29T05:22:40.464Z,97880.13
2023-03-29T05:25:08.997Z,97853.31
2023-03-29T05:27:35.856Z,97885.38
2023-03-29T05:30:02.765Z,97883.94
2023-03-29T05:32:30.304Z,97887.38
2023-03-29T05:34:57.116Z,97879.25
2023-03-29T05:37:23.773Z,97876.03
2023-03-29T05:39:50.419Z,97875.53
2023-03-29T05:42:19.369Z,97879.59
2023-03-29T05:44:46.225Z,97879.81
2023-03-29T05:47:12.849Z,97872.44
2023-03-29T05:49:39.724Z,97871.69
2023-03-29T05:52:06.859Z,97883.91
2023-03-29T05:54:33.704Z,97877.50
2023-03-29T05:57:00.553Z,97873.00
2023-03-29T05:59:29.823Z,97872.22
2023-03-29T06:01:56.872Z,97875.41
2023-03-29T06:04:24.700Z,97851.13
2023-03-29T06:06:53.205Z,97883.38
2023-03-29T06:09:20.221Z,97873.59
2023-03-29T06:11:47.735Z,97876.50
2023-03-29T06:14:15.680Z,97881.66
2023-03-29T06:16:43.500Z,97862.56
2023-03-29T06:19:10.211Z,97889.44
2023-03-29T06:21:36.920Z,97817.41
2023-03-29T06:24:04.373Z,97872.47
2023-03-29T06:26:31.536Z,97863.78
2023-03-29T06:28:58.427Z,97873.09
2023-03-29T06:31:25.357Z,97871.13
2023-03-29T06:33:52.142Z,97885.16
2023-03-29T06:36:20.321Z,97852.22
2023-03-29T06:38:47.356Z,97888.44
2023-03-29T06:41:15.191Z,97892.66
2023-03-29T06:43:43.343Z,97896.53
2023-03-29T06:46:12.441Z,97895.34
2023-03-29T06:48:40.371Z,97891.97
2023-03-29T06:51:07.820Z,97886.91
2023-03-29T06:53:35.747Z,97881.03
2023-03-29T06:56:09.501Z,97864.38
2023-03-29T06:58:36.791Z,97883.13
2023-03-29T07:01:05.065Z,97880.38
2023-03-29T07:03:35.601Z,97859.19
2023-03-29T07:06:10.265Z,97861.19
2023-03-29T07:08:43.594Z,97878.00
2023-03-29T07:11:15.659Z,97862.19
2023-03-29T07:13:43.445Z,97890.22
2023-03-29T07:16:13.059Z,97883.97
2023-03-29T07:18:44.469Z,97896.53
2023-03-29T07:21:12.599Z,97904.81
2023-03-29T07:23:40.901Z,97895.84
2023-03-29T07:26:08.123Z,97900.22
2023-03-29T07:28:35.663Z,97891.63
2023-03-29T07:31:07.413Z,97897.66
2023-03-29T07:33:34.811Z,97861.75
2023-03-29T07:36:02.150Z,97889.38
2023-03-29T07:38:29.464Z,97889.25
2023-03-29T07:40:56.402Z,97877.34
2023-03-29T07:43:24.208Z,97887.97
2023-03-29T07:45:53.086Z,97861.34
2023-03-29T07:48:19.861Z,97885.84
2023-03-29T07:50:46.878Z,97883.28
2023-03-29T07:53:13.852Z,97878.53
2023-03-29T07:55:47.755Z,97862.66
2023-03-29T07:58:15.717Z,97883.94
2023-03-29T08:00:43.895Z,97872.06
2023-03-29T08:03:12.630Z,97869.28
2023-03-29T08:05:41.808Z,97837.34
2023-03-29T08:08:09.848Z,97850.41
2023-03-29T08:10:39.228Z,97877.56
2023-03-29T08:13:09.538Z,97864.59
2023-03-29T08:15:39.236Z,97871.69
2023-03-29T08:18:08.596Z,97869.16
2023-03-29T08:20:35.494Z,97858.06
2023-03-29T08:23:02.254Z,97854.50
2023-03-29T08:25:29.050Z,97854.59
2023-03-29T08:27:55.841Z,97858.63
2023-03-29T08:30:22.540Z,97852.97
2023-03-29T08:32:52.870Z,97855.19
2023-03-29T08:35:21.497Z,97862.34
2023-03-29T08:37:48.218Z,97851.50
2023-03-29T08:40:27.420Z,97837.13
2023-03-29T08:43:00.138Z,97853.09
2023-03-29T08:45:51.440Z,97856.78
2023-03-29T08:48:27.480Z,97855.25
2023-03-29T08:50:58.813Z,97850.41
2023-03-29T08:53:45.290Z,97847.06
2023-03-29T08:56:16.976Z,97848.31
2023-03-29T08:58:45.280Z,97839.97
2023-03-29T09:01:12.604Z,97842.50
2023-03-29T09:03:44.206Z,97842.25
2023-03-29T09:06:15.743Z,97837.03
2023-03-29T09:08:47.799Z,97840.56
2023-03-29T09:11:32.790Z,97840.88
2023-03-29T09:14:14.571Z,97833.13
2023-03-29T09:17:02.786Z,97837.50
2023-03-29T09:19:40.026Z,97827.63
2023-03-29T09:22:21.933Z,97826.97
2023-03-29T09:25:05.387Z,97799.44
2023-03-29T09:27:44.608Z,97808.53
2023-03-29T09:30:26.451Z,97829.44
2023-03-29T09:33:19.436Z,97824.84
2023-03-29T09:36:10.246Z,97821.88
2023-03-29T09:38:41.514Z,97825.56
2023-03-29T09:41:26.888Z,97815.19
2023-03-29T09:43:56.314Z,97810.34
2023-03-29T09:46:29.291Z,97816.78
2023-03-29T09:48:57.002Z,97811.25
2023-03-29T09:51:28.170Z,97805.00
2023-03-29T09:53:56.922Z,97791.06
2023-03-29T09:56:23.815Z,97821.25
2023-03-29T09:58:50.521Z,97804.13
2023-03-29T10:01:21.621Z,97809.84
2023-03-29T10:03:53.373Z,97802.94
2023-03-29T10:06:23.988Z,97797.22
2023-03-29T10:08:53.072Z,97774.44
2023-03-29T10:11:20.467Z,97800.94
2023-03-29T10:13:51.208Z,97779.41
2023-03-29T10:16:28.737Z,97796.38
2023-03-29T10:18:55.604Z,97774.75
2023-03-29T10:21:23.841Z,97794.41
2023-03-29T10:23:58.612Z,97787.03
2023-03-29T10:26:31.059Z,97765.88
2023-03-29T10:29:00.684Z,97770.16
2023-03-29T10:31:33.209Z,97802.38
2023-03-29T10:34:06.664Z,97790.56
2023-03-29T10:36:47.871Z,97790.84
2023-03-29T10:39:16.433Z,97791.16
2023-03-29T10:41:44.840Z,97785.66
2023-03-29T10:44:32.930Z,97781.72
2023-03-29T10:47:17.789Z,97779.47
2023-03-29T10:49:53.221Z,97773.16
2023-03-29T10:52:22.613Z,97764.25
2023-03-29T10:54:52.744Z,97756.91
2023-03-29T10:57:32.544Z,97780.13
2023-03-29T11:00:18.328Z,97758.75
2023-03-29T11:03:07.986Z,97761.09
2023-03-29T11:06:14.948Z,97762.88
2023-03-29T11:08:52.914Z,97762.88
2023-03-29T11:11:49.528Z,97775.53
2023-03-29T11:14:38.950Z,97750.44
2023-03-29T11:17:35.016Z,97738.72
2023-03-29T11:20:28.156Z,97743.94
2023-03-29T11:23:10.157Z,97758.09
2023-03-29T11:25:54.795Z,97753.25
2023-03-29T11:28:31.466Z,97750.34
2023-03-29T11:31:10.205Z,97727.25
2023-03-29T11:33:58.432Z,97742.22
2023-03-29T11:36:34.239Z,97730.69
2023-03-29T11:39:14.681Z,97731.38
2023-03-29T11:41:49.999Z,97717.13
2023-03-29T11:44:29.798Z,97730.38
2023-03-29T11:46:58.784Z,97719.84
2023-03-29T11:49:38.294Z,97717.72
2023-03-29T11:52:39.910Z,97712.72
2023-03-29T11:55:18.223Z,97707.19
2023-03-29T11:58:14.951Z,97698.16
2023-03-29T12:00:47.536Z,97703.06
2023-03-29T12:03:26.014Z,97697.66
2023-03-29T12:06:00.197Z,97689.00
2023-03-29T12:08:35.925Z,97704.16
2023-03-29T12:11:06.682Z,97684.50
2023-03-29T12:13:42.874Z,97696.13
2023-03-29T12:16:22.171Z,97664.69
2023-03-29T12:18:54.506Z,97687.16
2023-03-29T12:21:23.388Z,97681.97
2023-03-29T12:23:52.004Z,97684.16
2023-03-29T12:26:45.985Z,97667.00
2023-03-29T12:29:48.656Z,97679.63
2023-03-29T12:32:57.746Z,97675.72
2023-03-29T12:35:34.380Z,97673.25
2023-03-29T12:38:14.393Z,97667.91
2023-03-29T12:40:57.337Z,97665.28
2023-03-29T12:43:31.746Z,97669.16
2023-03-29T12:46:06.489Z,97666.81
2023-03-29T12:48:37.436Z,97661.34
2023-03-29T12:51:07.904Z,97664.66
2023-03-29T12:53:39.028Z,97660.22
2023-03-29T12:56:13.937Z,97652.09
2023-03-29T12:58:40.684Z,97649.06
2023-03-29T13:01:28.229Z,97656.03
2023-03-29T13:04:13.954Z,97657.88
2023-03-29T13:06:46.863Z,97660.78
2023-03-29T13:09:23.455Z,97643.00
2023-03-29T13:11:56.184Z,97646.59
2023-03-29T13:14:28.337Z,97640.63
2023-03-29T13:17:17.778Z,97632.88
2023-03-29T13:20:21.377Z,97636.75
2023-03-29T13:22:56.350Z,97617.03
2023-03-29T13:25:42.099Z,97629.94
2023-03-29T13:28:27.753Z,97623.03
2023-03-29T13:31:32.057Z,97625.00
2023-03-29T13:34:26.787Z,97619.22
2023-03-29T13:37:30.685Z,97605.84
2023-03-29T13:39:57.444Z,97605.91
2023-03-29T13:42:36.591Z,97610.47
2023-03-29T13:45:30.394Z,97607.25
2023-03-29T13:48:25.511Z,97592.16
2023-03-29T13:50:56.514Z,97575.13
2023-03-29T13:53:36.527Z,97599.31
2023-03-29T13:56:05.819Z,97585.91
2023-03-29T13:58:44.936Z,97589.56
2023-03-29T14:01:19.532Z,97591.59
2023-03-29T14:03:51.831Z,97589.31
2023-03-29T14:06:31.890Z,97604.84
2023-03-29T14:09:03.046Z,97604.34
2023-03-29T14:11:31.271Z,97601.56
2023-03-29T14:14:00.421Z,97592.94
2023-03-29T14:16:32.092Z,97595.97
2023-03-29T14:19:02.451Z,97590.53
2023-03-29T14:21:29.612Z,97598.88
2023-03-29T14:24:00.905Z,97594.56
2023-03-29T14:26:33.264Z,97603.69
2023-03-29T14:29:01.591Z,97590.81
2023-03-29T14:31:32.668Z,97573.50
2023-03-29T14:34:01.566Z,97601.78
2023-03-29T14:36:29.877Z,97589.81
2023-03-29T14:39:18.039Z,97571.66
2023-03-29T14:41:52.070Z,97601.34
2023-03-29T14:44:22.032Z,97597.53
2023-03-29T14:46:48.928Z,97598.28
2023-03-29T14:49:20.525Z,97589.81
2023-03-29T14:51:48.069Z,97588.91
2023-03-29T14:54:21.263Z,97595.66
2023-03-29T14:56:49.371Z,97583.00
2023-03-29T14:59:24.365Z,97590.41
2023-03-29T15:01:51.213Z,97561.63
2023-03-29T15:04:17.920Z,97579.56
2023-03-29T15:06:47.066Z,97555.59
2023-03-29T15:09:27.719Z,97567.19
2023-03-29T15:11:56.657Z,97576.81
2023-03-29T15:14:27.063Z,97570.78
2023-03-29T15:17:01.433Z,97566.03
2023-03-29T15:19:28.475Z,97560.09
2023-03-29T15:21:55.164Z,97564.16
2023-03-29T15:24:48.726Z,97569.91
2023-03-29T15:27:19.180Z,97570.63
2023-03-29T15:29:47.508Z,97562.25
2023-03-29T15:32:23.009Z,97553.13
2023-03-29T15:35:08.157Z,97557.56
2023-03-29T15:37:36.999Z,97558.38
2023-03-29T15:40:09.756Z,97549.56
2023-03-29T15:42:36.993Z,97548.06
2023-03-29T15:45:06.440Z,97515.38
2023-03-29T15:47:33.300Z,97537.13
2023-03-29T15:49:59.961Z,97527.44
2023-03-29T15:52:26.805Z,97518.31
2023-03-29T15:54:53.554Z,97527.81
2023-03-29T15:57:20.533Z,97549.22
2023-03-29T15:59:48.555Z,97506.13
2023-03-29T16:02:16.825Z,97544.69
2023-03-29T16:04:43.980Z,97532.88
2023-03-29T16:07:14.659Z,97546.78
2023-03-29T16:09:42.212Z,97517.94
2023-03-29T16:12:10.477Z,97544.22
2023-03-29T16:14:37.361Z,97501.13
2023-03-29T16:17:04.917Z,97528.75
2023-03-29T16:19:33.153Z,97543.41
2023-03-29T16:22:02.469Z,97521.59
2023-03-29T16:24:32.364Z,97545.75
2023-03-29T16:27:01.419Z,97548.28
2023-03-29T16:29:29.680Z,97542.66
2023-03-29T16:31:57.787Z,97536.16
2023-03-29T16:34:25.289Z,97539.66
2023-03-29T16:36:53.219Z,97493.78
2023-03-29T16:39:20.199Z,97516.75
2023-03-29T16:41:49.064Z,97524.53
2023-03-29T16:44:21.600Z,97518.03
2023-03-29T16:46:50.043Z,97517.91
2023-03-29T16:49:18.846Z,97513.22
2023-03-29T16:51:47.255Z,97521.03
2023-03-29T16:54:14.718Z,97498.97
2023-03-29T16:56:41.535Z,97520.00
2023-03-29T16:59:09.351Z,97512.06
2023-03-29T17:01:36.811Z,97529.91
2023-03-29T17:04:04.168Z,97495.00
2023-03-29T17:06:32.776Z,97516.16
2023-03-29T17:09:00.861Z,97526.97
2023-03-29T17:11:28.917Z,97530.34
2023-03-29T17:13:56.449Z,97527.81
2023-03-29T17:16:23.350Z,97530.16
2023-03-29T17:18:50.147Z,97537.91
2023-03-29T17:21:17.147Z,97533.78
2023-03-29T17:23:43.873Z,97531.28
2023-03-29T17:26:12.052Z,97534.47
2023-03-29T17:28:39.239Z,97518.31
2023-03-29T17:31:07.800Z,97522.78
2023-03-29T17:33:35.449Z,97535.22
2023-03-29T17:36:03.815Z,97530.53
2023-03-29T17:38:30.844Z,97539.84
2023-03-29T17:40:57.566Z,97546.19
2023-03-29T17:43:24.456Z,97550.59
2023-03-29T17:45:54.966Z,97554.41
2023-03-29T17:48:23.439Z,97558.00
2023-03-29T17:50:50.319Z,97544.47
2023-03-29T17:53:16.983Z,97551.22
2023-03-29T17:55:44.819Z,97555.53
2023-03-29T17:58:11.954Z,97555.56
2023-03-29T18:00:38.851Z,97558.31
2023-03-29T18:03:07.754Z,97565.25
2023-03-29T18:05:35.854Z,97560.72
2023-03-29T18:08:02.773Z,97534.69
2023-03-29T18:10:30.662Z,97545.44
2023-03-29T18:12:57.388Z,97555.16
2023-03-29T18:15:24.104Z,97554.66
2023-03-29T18:17:50.954Z,97564.06
2023-03-29T18:20:17.914Z,97571.84
2023-03-29T18:22:44.759Z,97556.84
2023-03-29T18:25:11.539Z,97544.53
2023-03-29T18:27:39.813Z,97578.38
2023-03-29T18:30:08.797Z,97584.53
2023-03-29T18:32:37.769Z,97584.28
2023-03-29T18:36:01.112Z,97583.22
2023-03-29T18:42:07.766Z,97576.34
2023-03-29T18:48:12.412Z,97558.81
2023-03-29T18:54:16.113Z,97569.03
2023-03-29T19:00:20.249Z,97559.72
2023-03-29T19:06:23.966Z,97558.91
2023-03-29T19:12:28.932Z,97568.09
2023-03-29T19:14:55.866Z,97562.97
2023-03-29T19:17:22.618Z,97529.19
2023-03-29T19:19:49.481Z,97563.28
2023-03-29T19:22:17.449Z,97558.44
2023-03-29T19:24:44.116Z,97554.16
2023-03-29T19:27:12.584Z,97545.03
2023-03-29T19:29:39.549Z,97557.09
2023-03-29T19:32:07.076Z,97556.84
2023-03-29T19:34:34.288Z,97540.47
2023-03-29T19:37:01.203Z,97564.09
2023-03-29T19:39:29.615Z,97564.91
2023-03-29T19:41:57.549Z,97561.97
2023-03-29T19:44:25.440Z,97559.00
2023-03-29T19:46:52.305Z,97573.81
2023-03-29T19:49:20.673Z,97562.53
2023-03-29T19:51:48.176Z,97557.97
2023-03-29T19:54:15.046Z,97571.91
2023-03-29T19:56:43.050Z,97572.72
2023-03-29T19:59:11.321Z,97572.97
2023-03-29T20:01:41.019Z,97565.47
2023-03-29T20:04:07.942Z,97559.53
2023-03-29T20:06:35.001Z,97552.03
2023-03-29T20:09:02.062Z,97557.63
2023-03-29T20:11:29.077Z,97535.91
2023-03-29T20:13:57.404Z,97571.88
2023-03-29T20:16:30.077Z,97555.78
2023-03-29T20:18:56.763Z,97536.41
2023-03-29T20:21:24.538Z,97549.84
2023-03-29T20:23:58.360Z,97530.50
2023-03-29T20:26:26.439Z,97543.13
2023-03-29T20:28:54.154Z,97534.03
2023-03-29T20:31:21.306Z,97512.78
2023-03-29T20:33:48.051Z,97527.81
2023-03-29T20:36:18.775Z,97532.66
2023-03-29T20:38:47.762Z,97504.72
2023-03-29T20:41:16.608Z,97511.19
2023-03-29T20:43:43.930Z,97465.81
2023-03-29T20:46:23.070Z,97505.84
2023-03-29T20:48:56.242Z,97509.31
2023-03-29T20:51:43.188Z,97501.53
2023-03-29T20:54:10.724Z,97496.75
2023-03-29T20:56:40.181Z,97518.19
2023-03-29T20:59:11.013Z,97510.41
2023-03-29T21:01:41.002Z,97512.31
2023-03-29T21:04:08.824Z,97502.09
2023-03-29T21:06:36.280Z,97498.88
2023-03-29T21:09:05.008Z,97481.69
2023-03-29T21:11:32.199Z,97488.69
2023-03-29T21:13:59.292Z,97491.09
2023-03-29T21:16:26.012Z,97485.41
2023-03-29T21:18:53.426Z,97460.16
2023-03-29T21:21:20.210Z,97507.09
2023-03-29T21:23:46.864Z,97507.06
2023-03-29T21:26:13.689Z,97503.53
2023-03-29T21:28:42.570Z,97492.53
2023-03-29T21:31:09.902Z,97480.19
2023-03-29T21:33:36.641Z,97502.41
2023-03-29T21:36:03.649Z,97500.78
2023-03-29T21:38:30.841Z,97497.00
2023-03-29T21:40:58.340Z,97499.16
2023-03-29T21:43:25.065Z,97502.88
2023-03-29T21:45:51.733Z,97504.47
2023-03-29T21:48:19.363Z,97502.09
2023-03-29T21:50:50.282Z,97509.56
2023-03-29T21:53:19.012Z,97479.75
2023-03-29T21:55:49.003Z,97502.25
2023-03-29T21:58:16.263Z,97476.50
2023-03-29T22:00:43.013Z,97493.09
2023-03-29T22:03:09.782Z,97477.59
2023-03-29T22:05:36.953Z,97492.09
2023-03-29T22:08:06.572Z,97469.28
2023-03-29T22:10:33.740Z,97492.31
2023-03-29T22:13:00.829Z,97495.00
2023-03-29T22:15:29.515Z,97488.84
2023-03-29T22:17:59.751Z,97475.16
2023-03-29T22:20:27.700Z,97475.41
2023-03-29T22:22:54.391Z,97476.75
2023-03-29T22:25:22.875Z,97459.34
2023-03-29T22:27:50.076Z,97459.88
2023-03-29T22:30:17.422Z,97476.78
2023-03-29T22:32:44.225Z,97482.97
2023-03-29T22:35:11.064Z,97470.13
2023-03-29T22:37:44.411Z,97446.00
2023-03-29T22:40:13.375Z,97466.91
2023-03-29T22:42:40.261Z,97459.91
2023-03-29T22:45:08.008Z,97458.88
2023-03-29T22:47:35.544Z,97444.94
2023-03-29T22:50:02.409Z,97446.53
2023-03-29T22:52:30.176Z,97457.81
2023-03-29T22:54:56.820Z,97436.06
2023-03-29T22:57:24.602Z,97404.97
2023-03-29T22:59:51.365Z,97441.94
2023-03-29T23:02:18.071Z,97437.66
2023-03-29T23:04:45.772Z,97385.94
2023-03-29T23:07:12.548Z,97449.16
2023-03-29T23:09:39.294Z,97436.84
2023-03-29T23:12:06.284Z,97429.84
2023-03-29T23:14:34.209Z,97435.72
2023-03-29T23:17:00.989Z,97445.63
2023-03-29T23:19:28.678Z,97436.75
2023-03-29T23:21:55.465Z,97413.94
2023-03-29T23:24:23.024Z,97409.13
2023-03-29T23:26:50.796Z,97405.63
2023-03-29T23:29:17.491Z,97403.91
2023-03-29T23:31:44.490Z,97399.34
2023-03-29T23:34:11.445Z,97406.78
2023-03-29T23:36:38.158Z,97396.78
2023-03-29T23:39:08.090Z,97410.41
2023-03-29T23:41:34.921Z,97417.31
2023-03-29T23:44:03.756Z,97418.59
2023-03-29T23:46:31.468Z,97371.34
2023-03-29T23:48:58.649Z,97399.59
2023-03-29T23:51:28.461Z,97409.13
2023-03-29T23:53:57.201Z,97413.06
2023-03-29T23:56:24.487Z,97386.16
2023-03-29T23:58:52.506Z,97393.91
